createdAt,value
2018-09-10T00:01:54.110Z,17.44
2018-09-10T00:04:22.864Z,17.39
2018-09-10T00:06:51.631Z,17.41
2018-09-10T00:09:20.324Z,17.35
2018-09-10T00:11:49.008Z,17.22
2018-09-10T00:14:17.674Z,17.25
2018-09-10T00:16:46.366Z,17.07
2018-09-10T00:19:15.045Z,17.18
2018-09-10T00:21:43.718Z,17.07
2018-09-10T00:24:12.344Z,17.15
2018-09-10T00:26:41.091Z,17.13
2018-09-10T00:29:09.774Z,17.12
2018-09-10T00:31:38.438Z,17.01
2018-09-10T00:34:07.168Z,17.02
2018-09-10T00:36:35.843Z,16.99
2018-09-10T00:39:07.212Z,16.92
2018-09-10T00:41:35.897Z,16.84
2018-09-10T00:44:04.582Z,16.80
2018-09-10T00:46:33.283Z,16.76
2018-09-10T00:49:02.040Z,16.76
2018-09-10T00:51:30.734Z,16.81
2018-09-10T00:53:59.456Z,16.75
2018-09-10T00:56:28.116Z,16.79
2018-09-10T00:58:56.841Z,16.82
2018-09-10T01:01:25.568Z,16.79
2018-09-10T01:03:54.304Z,16.85
2018-09-10T01:06:22.949Z,16.87
2018-09-10T01:08:51.687Z,16.79
2018-09-10T01:11:20.364Z,16.80
2018-09-10T01:13:49.572Z,16.72
2018-09-10T01:16:18.270Z,16.75
2018-09-10T01:18:46.892Z,16.68
2018-09-10T01:21:19.292Z,16.66
2018-09-10T01:23:47.983Z,16.60
2018-09-10T01:26:16.663Z,16.59
2018-09-10T01:28:45.334Z,16.58
2018-09-10T01:31:14.034Z,16.54
2018-09-10T01:33:47.969Z,16.51
2018-09-10T01:36:16.711Z,16.49
2018-09-10T01:38:45.360Z,16.45
2018-09-10T01:41:14.029Z,16.43
2018-09-10T01:43:42.713Z,16.40
2018-09-10T01:46:11.447Z,16.39
2018-09-10T01:48:40.216Z,16.37
2018-09-10T01:51:08.928Z,16.37
2018-09-10T01:53:37.587Z,16.40
2018-09-10T01:56:06.626Z,16.39
2018-09-10T01:58:35.300Z,16.40
2018-09-10T02:01:03.964Z,16.39
2018-09-10T02:03:32.656Z,16.31
2018-09-10T02:06:01.350Z,16.29
2018-09-10T02:08:30.014Z,16.27
2018-09-10T02:10:59.271Z,16.24
2018-09-10T02:13:27.922Z,16.23
2018-09-10T02:15:56.643Z,16.17
2018-09-10T02:18:25.339Z,16.15
2018-09-10T02:20:54.018Z,16.10
2018-09-10T02:23:22.710Z,16.12
2018-09-10T02:25:51.347Z,16.09
2018-09-10T02:28:20.067Z,16.10
2018-09-10T02:30:48.770Z,16.08
2018-09-10T02:33:17.440Z,16.04
2018-09-10T02:35:46.154Z,16.02
2018-09-10T02:38:14.885Z,15.97
2018-09-10T02:40:43.540Z,15.94
2018-09-10T02:43:12.290Z,15.90
2018-09-10T02:45:40.996Z,15.89
2018-09-10T02:48:09.707Z,15.91
2018-09-10T02:50:38.372Z,15.87
2018-09-10T02:53:07.029Z,15.78
2018-09-10T02:55:35.658Z,15.78
2018-09-10T02:58:04.916Z,15.80
2018-09-10T03:00:33.628Z,15.83
2018-09-10T03:03:02.320Z,15.82
2018-09-10T03:05:31.008Z,15.85
2018-09-10T03:07:59.691Z,15.76
2018-09-10T03:10:28.358Z,15.74
2018-09-10T03:12:57.094Z,15.73
2018-09-10T03:15:25.828Z,15.69
2018-09-10T03:17:54.477Z,15.65
2018-09-10T03:20:23.234Z,15.67
2018-09-10T03:22:51.845Z,15.68
2018-09-10T03:25:20.522Z,15.67
2018-09-10T03:27:49.216Z,15.72
2018-09-10T03:30:17.870Z,15.70
2018-09-10T03:32:46.578Z,15.68
2018-09-10T03:35:15.255Z,15.60
2018-09-10T03:37:43.996Z,15.62
2018-09-10T03:40:12.675Z,15.57
2018-09-10T03:42:41.331Z,15.59
2018-09-10T03:45:09.978Z,15.54
2018-09-10T03:47:38.679Z,15.52
2018-09-10T03:50:07.411Z,15.47
2018-09-10T03:52:36.114Z,15.43
2018-09-10T03:55:04.888Z,15.43
2018-09-10T03:57:33.584Z,15.47
2018-09-10T04:00:02.270Z,15.49
2018-09-10T04:02:30.934Z,15.50
2018-09-10T04:04:59.704Z,15.50
2018-09-10T04:07:28.422Z,15.52
2018-09-10T04:09:57.091Z,15.53
2018-09-10T04:12:25.743Z,15.53
2018-09-10T04:14:54.460Z,15.57
2018-09-10T04:17:23.215Z,15.54
2018-09-10T04:19:56.176Z,15.52
2018-09-10T04:22:24.861Z,15.53
2018-09-10T04:24:53.561Z,15.53
2018-09-10T04:27:22.252Z,15.64
2018-09-10T04:29:50.958Z,15.66
2018-09-10T04:32:19.628Z,15.66
2018-09-10T04:34:48.330Z,15.64
2018-09-10T04:37:17.075Z,15.66
2018-09-10T04:39:45.772Z,15.70
2018-09-10T04:42:14.557Z,15.69
2018-09-10T04:44:43.244Z,15.66
2018-09-10T04:47:11.977Z,15.58
2018-09-10T04:49:40.674Z,15.71
2018-09-10T04:52:09.335Z,15.69
2018-09-10T04:54:38.005Z,15.76
2018-09-10T04:57:06.709Z,15.83
2018-09-10T04:59:35.410Z,15.91
2018-09-10T05:02:04.116Z,15.93
2018-09-10T05:04:32.835Z,15.95
2018-09-10T05:07:01.473Z,16.00
2018-09-10T05:09:30.308Z,16.06
2018-09-10T05:11:58.972Z,16.17
2018-09-10T05:14:27.680Z,16.23
2018-09-10T05:16:56.565Z,16.24
2018-09-10T05:19:25.216Z,16.26
2018-09-10T05:21:53.962Z,16.21
2018-09-10T05:24:22.638Z,16.37
2018-09-10T05:26:51.324Z,16.47
2018-09-10T05:29:20.007Z,16.51
2018-09-10T05:31:48.711Z,16.51
2018-09-10T05:34:17.323Z,16.50
2018-09-10T05:36:46.199Z,16.54
2018-09-10T05:39:15.678Z,16.56
2018-09-10T05:41:44.492Z,16.62
2018-09-10T05:44:13.142Z,16.65
2018-09-10T05:46:41.826Z,16.69
2018-09-10T05:49:10.488Z,16.74
2018-09-10T05:51:39.211Z,16.77
2018-09-10T05:54:07.895Z,16.88
2018-09-10T05:56:36.560Z,16.95
2018-09-10T05:59:05.267Z,17.02
2018-09-10T06:01:33.966Z,17.08
2018-09-10T06:04:02.664Z,17.13
2018-09-10T06:06:31.348Z,17.16
2018-09-10T06:09:00.013Z,17.24
2018-09-10T06:11:28.710Z,17.30
2018-09-10T06:13:57.431Z,17.42
2018-09-10T06:16:26.108Z,17.46
2018-09-10T06:18:54.760Z,17.53
2018-09-10T06:21:23.482Z,17.59
2018-09-10T06:23:52.135Z,17.64
2018-09-10T06:26:20.936Z,17.78
2018-09-10T06:28:49.645Z,17.86
2018-09-10T06:31:18.318Z,17.99
2018-09-10T06:33:46.951Z,18.12
2018-09-10T06:36:15.663Z,18.15
2018-09-10T06:38:44.396Z,18.21
2018-09-10T06:41:13.035Z,18.27
2018-09-10T06:43:41.741Z,18.25
2018-09-10T06:46:10.704Z,18.37
2018-09-10T06:48:39.447Z,18.37
2018-09-10T06:51:08.192Z,18.50
2018-09-10T06:53:36.936Z,18.56
2018-09-10T06:56:06.140Z,18.68
2018-09-10T06:58:35.664Z,18.81
2018-09-10T07:01:04.426Z,18.90
2018-09-10T07:03:33.162Z,19.08
2018-09-10T07:06:01.948Z,19.09
2018-09-10T07:08:30.730Z,19.14
2018-09-10T07:10:59.393Z,19.25
2018-09-10T07:13:28.128Z,19.40
2018-09-10T07:15:56.913Z,19.32
2018-09-10T07:18:25.649Z,19.41
2018-09-10T07:20:54.343Z,19.13
2018-09-10T07:23:23.038Z,19.04
2018-09-10T07:25:51.779Z,19.13
2018-09-10T07:28:20.560Z,19.18
2018-09-10T07:30:49.288Z,19.16
2018-09-10T07:33:17.974Z,19.17
2018-09-10T07:35:46.706Z,19.23
2018-09-10T07:38:16.175Z,19.30
2018-09-10T07:40:44.882Z,19.41
2018-09-10T07:43:13.564Z,19.49
2018-09-10T07:45:42.229Z,19.46
2018-09-10T07:48:10.922Z,19.47
2018-09-10T07:50:39.590Z,19.49
2018-09-10T07:53:08.291Z,19.62
2018-09-10T07:55:37.012Z,19.65
2018-09-10T07:58:05.972Z,19.65
2018-09-10T08:00:34.625Z,19.65
2018-09-10T08:03:03.323Z,19.79
2018-09-10T08:05:32.019Z,19.99
2018-09-10T08:08:00.791Z,20.13
2018-09-10T08:10:29.479Z,20.18
2018-09-10T08:12:58.167Z,20.24
2018-09-10T08:15:26.837Z,20.24
2018-09-10T08:17:55.558Z,20.31
2018-09-10T08:20:24.273Z,20.37
2018-09-10T08:22:52.965Z,20.50
2018-09-10T08:25:21.629Z,20.66
2018-09-10T08:27:50.333Z,20.64
2018-09-10T08:30:19.046Z,20.68
2018-09-10T08:32:47.692Z,20.92
2018-09-10T08:35:16.456Z,21.01
2018-09-10T08:37:45.212Z,21.15
2018-09-10T08:40:13.878Z,21.25
2018-09-10T08:42:42.632Z,21.19
2018-09-10T08:45:11.376Z,21.37
2018-09-10T08:47:40.060Z,21.40
2018-09-10T08:50:09.422Z,21.46
2018-09-10T08:52:38.315Z,21.61
2018-09-10T08:55:07.094Z,21.79
2018-09-10T08:57:35.719Z,21.88
2018-09-10T09:00:06.113Z,22.01
2018-09-10T09:02:34.825Z,22.07
2018-09-10T09:05:03.550Z,21.95
2018-09-10T09:07:32.303Z,22.28
2018-09-10T09:10:00.956Z,22.39
2018-09-10T09:12:29.620Z,22.28
2018-09-10T09:14:58.294Z,22.22
2018-09-10T09:17:27.006Z,22.31
2018-09-10T09:19:56.109Z,22.33
2018-09-10T09:22:24.827Z,22.14
2018-09-10T09:24:53.438Z,22.29
2018-09-10T09:30:52.678Z,22.01
2018-09-10T09:33:21.432Z,21.99
2018-09-10T09:35:55.428Z,21.79
2018-09-10T09:38:29.405Z,21.94
2018-09-10T09:41:03.260Z,22.26
2018-09-10T09:43:37.233Z,22.38
2018-09-10T09:46:07.814Z,22.56
2018-09-10T09:48:36.551Z,22.81
2018-09-10T09:51:05.425Z,22.78
2018-09-10T09:53:34.619Z,22.83
2018-09-10T09:56:03.366Z,22.92
2018-09-10T09:58:32.147Z,22.77
2018-09-10T10:01:06.130Z,22.61
2018-09-10T10:03:40.060Z,22.67
2018-09-10T10:06:08.705Z,22.55
2018-09-10T10:08:37.388Z,22.69
2018-09-10T10:11:06.224Z,23.08
2018-09-10T10:13:34.933Z,22.96
2018-09-10T10:16:03.640Z,22.99
2018-09-10T10:20:01.654Z,23.29
2018-09-10T10:22:30.308Z,23.58
2018-09-10T10:24:59.015Z,24.32
2018-09-10T10:27:27.850Z,24.88
2018-09-10T10:29:56.604Z,25.66
2018-09-10T10:32:25.286Z,25.54
2018-09-10T10:34:53.992Z,24.91
2018-09-10T10:37:22.645Z,24.62
2018-09-10T10:39:51.370Z,24.51
2018-09-10T10:42:20.041Z,24.83
2018-09-10T10:44:48.710Z,24.81
2018-09-10T10:47:17.455Z,24.63
2018-09-10T10:49:47.500Z,24.92
2018-09-10T10:52:16.247Z,24.61
2018-09-10T10:54:44.975Z,24.88
2018-09-10T10:57:13.705Z,24.34
2018-09-10T10:59:42.436Z,23.93
2018-09-10T11:02:11.134Z,24.14
2018-09-10T11:04:39.889Z,24.34
2018-09-10T11:07:08.537Z,24.91
2018-09-10T11:09:37.211Z,25.42
2018-09-10T11:12:05.876Z,25.45
2018-09-10T11:14:34.527Z,25.74
2018-09-10T11:17:03.192Z,26.05
2018-09-10T11:19:31.908Z,26.37
2018-09-10T11:22:00.603Z,27.06
2018-09-10T11:24:29.287Z,26.55
2018-09-10T11:26:58.139Z,25.93
2018-09-10T11:29:26.840Z,25.98
2018-09-10T11:31:55.519Z,26.69
2018-09-10T11:34:24.194Z,26.79
2018-09-10T11:36:52.886Z,26.71
2018-09-10T11:39:21.558Z,26.57
2018-09-10T11:41:50.264Z,26.39
2018-09-10T11:44:18.982Z,26.05
2018-09-10T11:46:47.673Z,26.26
2018-09-10T11:49:16.316Z,26.64
2018-09-10T11:51:45.102Z,26.59
2018-09-10T11:54:13.790Z,26.82
2018-09-10T11:56:42.479Z,26.74
2018-09-10T11:59:11.151Z,27.44
2018-09-10T12:01:39.901Z,27.68
2018-09-10T12:04:08.533Z,27.92
2018-09-10T12:06:37.287Z,27.79
2018-09-10T12:09:07.456Z,27.54
2018-09-10T12:11:36.218Z,27.37
2018-09-10T12:14:04.894Z,26.83
2018-09-10T12:16:33.583Z,26.34
2018-09-10T12:19:02.270Z,26.42
2018-09-10T12:21:30.993Z,26.85
2018-09-10T12:23:59.717Z,27.53
2018-09-10T12:26:28.442Z,27.29
2018-09-10T12:28:57.136Z,27.56
2018-09-10T12:31:25.901Z,27.14
2018-09-10T12:33:54.604Z,26.40
2018-09-10T12:36:23.308Z,25.98
2018-09-10T12:38:52.035Z,26.23
2018-09-10T12:41:20.713Z,27.00
2018-09-10T12:43:49.366Z,27.51
2018-09-10T12:46:18.069Z,26.71
2018-09-10T12:48:47.121Z,26.53
2018-09-10T12:51:15.805Z,27.19
2018-09-10T12:53:44.479Z,27.48
2018-09-10T12:56:13.136Z,27.70
2018-09-10T12:58:41.797Z,27.80
2018-09-10T13:01:10.479Z,27.18
2018-09-10T13:03:39.247Z,27.75
2018-09-10T13:06:07.986Z,28.19
2018-09-10T13:08:36.683Z,28.57
2018-09-10T13:11:05.326Z,28.46
2018-09-10T13:14:37.178Z,28.72
2018-09-10T13:17:05.864Z,28.57
2018-09-10T13:19:34.527Z,29.02
2018-09-10T13:22:03.222Z,28.64
2018-09-10T13:24:31.918Z,28.05
2018-09-10T13:27:00.616Z,28.91
2018-09-10T13:29:29.255Z,28.94
2018-09-10T13:31:57.922Z,29.05
2018-09-10T13:34:26.666Z,29.56
2018-09-10T13:36:55.390Z,28.86
2018-09-10T13:39:24.146Z,27.82
2018-09-10T13:41:52.852Z,27.38
2018-09-10T13:44:21.503Z,27.33
2018-09-10T13:46:50.170Z,27.78
2018-09-10T13:49:18.901Z,27.97
2018-09-10T13:51:47.567Z,27.11
2018-09-10T13:54:16.399Z,26.89
2018-09-10T13:56:45.075Z,26.52
2018-09-10T13:59:13.749Z,26.95
2018-09-10T14:01:42.487Z,27.34
2018-09-10T14:04:11.196Z,27.16
2018-09-10T14:06:39.943Z,27.28
2018-09-10T14:09:08.894Z,27.42
2018-09-10T14:11:38.500Z,27.16
2018-09-10T14:14:07.712Z,26.81
2018-09-10T14:16:36.387Z,26.63
2018-09-10T14:19:05.491Z,26.40
2018-09-10T14:21:34.191Z,26.47
2018-09-10T14:24:02.874Z,26.14
2018-09-10T14:26:31.589Z,26.15
2018-09-10T14:29:00.251Z,26.55
2018-09-10T14:31:29.048Z,26.44
2018-09-10T14:33:57.723Z,26.50
2018-09-10T14:36:26.432Z,26.73
2018-09-10T14:38:55.094Z,26.97
2018-09-10T14:41:23.781Z,27.56
2018-09-10T14:43:52.458Z,27.44
2018-09-10T14:46:21.126Z,27.63
2018-09-10T14:48:49.830Z,27.91
2018-09-10T14:51:18.508Z,27.78
2018-09-10T14:53:47.245Z,27.66
2018-09-10T14:56:15.906Z,27.82
2018-09-10T14:58:44.591Z,28.13
2018-09-10T15:01:13.239Z,28.12
2018-09-10T15:03:41.957Z,27.96
2018-09-10T15:06:10.640Z,27.21
2018-09-10T15:08:39.310Z,27.81
2018-09-10T15:11:08.033Z,26.99
2018-09-10T15:13:36.720Z,26.81
2018-09-10T15:16:05.416Z,27.36
2018-09-10T15:18:34.168Z,27.53
2018-09-10T15:21:02.800Z,27.16
2018-09-10T15:23:31.558Z,27.18
2018-09-10T15:26:00.311Z,26.91
2018-09-10T15:28:29.014Z,26.42
2018-09-10T15:30:57.758Z,26.44
2018-09-10T15:33:27.661Z,26.42
2018-09-10T15:35:56.428Z,26.22
2018-09-10T15:38:25.089Z,26.58
2018-09-10T15:40:53.782Z,25.80
2018-09-10T15:43:22.487Z,25.40
2018-09-10T15:45:51.251Z,25.45
2018-09-10T15:48:19.969Z,25.52
2018-09-10T15:50:48.661Z,25.95
2018-09-10T15:53:17.378Z,25.72
2018-09-10T15:55:46.047Z,25.17
2018-09-10T15:58:14.754Z,25.22
2018-09-10T16:00:43.495Z,25.24
2018-09-10T16:03:12.209Z,25.46
2018-09-10T16:05:40.848Z,25.41
2018-09-10T16:08:09.566Z,25.21
2018-09-10T16:10:38.205Z,24.87
2018-09-10T16:13:06.934Z,24.67
2018-09-10T16:15:35.659Z,24.20
2018-09-10T16:18:04.319Z,23.90
2018-09-10T16:20:33.025Z,23.51
2018-09-10T16:23:01.683Z,23.45
2018-09-10T16:25:30.506Z,23.27
2018-09-10T16:27:59.198Z,23.01
2018-09-10T16:30:27.943Z,22.99
2018-09-10T16:32:56.714Z,22.83
2018-09-10T16:35:25.434Z,22.64
2018-09-10T16:37:54.154Z,22.50
2018-09-10T16:40:22.846Z,22.39
2018-09-10T16:42:51.559Z,22.26
2018-09-10T16:45:20.447Z,22.25
2018-09-10T16:47:49.172Z,22.15
2018-09-10T16:50:17.893Z,22.01
2018-09-10T16:52:46.529Z,21.94
2018-09-10T16:55:15.282Z,21.88
2018-09-10T16:57:44.953Z,21.82
2018-09-10T17:00:15.222Z,21.75
2018-09-10T17:02:43.960Z,21.67
2018-09-10T17:05:12.680Z,21.64
2018-09-10T17:07:41.490Z,21.56
2018-09-10T17:10:10.300Z,21.48
2018-09-10T17:12:39.096Z,21.46
2018-09-10T17:15:07.916Z,21.50
2018-09-10T17:17:36.646Z,21.51
2018-09-10T17:20:05.698Z,21.51
2018-09-10T17:22:34.591Z,21.45
2018-09-10T17:25:03.274Z,21.45
2018-09-10T17:27:31.948Z,21.41
2018-09-10T17:30:00.745Z,21.33
2018-09-10T17:32:29.471Z,21.30
2018-09-10T17:34:58.241Z,21.23
2018-09-10T17:37:26.963Z,21.18
2018-09-10T17:39:55.732Z,21.15
2018-09-10T17:42:24.456Z,21.13
2018-09-10T17:44:53.165Z,21.12
2018-09-10T17:47:21.880Z,21.10
2018-09-10T17:49:50.687Z,21.08
2018-09-10T17:52:19.445Z,21.08
2018-09-10T17:54:48.169Z,21.11
2018-09-10T17:57:16.867Z,21.02
2018-09-10T17:59:45.655Z,20.99
2018-09-10T18:02:14.336Z,20.95
2018-09-10T18:04:42.996Z,20.87
2018-09-10T18:07:11.654Z,20.83
2018-09-10T18:09:43.554Z,20.79
2018-09-10T18:12:12.330Z,20.73
2018-09-10T18:14:41.166Z,20.72
2018-09-10T18:17:09.994Z,20.68
2018-09-10T18:19:39.018Z,20.63
2018-09-10T18:22:07.759Z,20.57
2018-09-10T18:24:36.502Z,20.51
2018-09-10T18:27:05.178Z,20.45
2018-09-10T18:29:33.871Z,20.45
2018-09-10T18:32:02.621Z,20.46
2018-09-10T18:34:31.327Z,20.39
2018-09-10T18:37:00.092Z,20.39
2018-09-10T18:39:28.824Z,20.34
2018-09-10T18:41:57.517Z,20.33
2018-09-10T18:44:26.254Z,20.34
2018-09-10T18:46:54.904Z,20.22
2018-09-10T18:49:23.627Z,20.18
2018-09-10T18:51:52.574Z,20.09
2018-09-10T18:54:21.324Z,20.03
2018-09-10T18:56:50.010Z,20.02
2018-09-10T18:59:18.678Z,19.97
2018-09-10T19:01:47.374Z,19.89
2018-09-10T19:04:16.264Z,19.88
2018-09-10T19:06:44.963Z,19.89
2018-09-10T19:09:13.697Z,19.88
2018-09-10T19:11:42.457Z,19.91
2018-09-10T19:14:11.146Z,19.87
2018-09-10T19:16:39.878Z,19.85
2018-09-10T19:19:08.669Z,19.83
2018-09-10T19:21:37.369Z,19.80
2018-09-10T19:24:06.024Z,19.78
2018-09-10T19:26:34.816Z,19.62
2018-09-10T19:29:03.546Z,19.57
2018-09-10T19:31:32.541Z,19.52
2018-09-10T19:34:01.212Z,19.55
2018-09-10T19:36:29.966Z,19.51
2018-09-10T19:38:58.654Z,19.55
2018-09-10T19:41:27.300Z,19.56
2018-09-10T19:43:56.017Z,19.50
2018-09-10T19:46:24.806Z,19.33
2018-09-10T19:48:53.536Z,19.38
2018-09-10T19:51:24.974Z,19.40
2018-09-10T19:53:55.616Z,19.36
2018-09-10T19:56:24.990Z,19.31
2018-09-10T19:58:53.724Z,19.31
2018-09-10T20:01:22.499Z,19.20
2018-09-10T20:03:51.123Z,19.20
2018-09-10T20:06:19.839Z,19.25
2018-09-10T20:08:48.539Z,19.24
2018-09-10T20:11:17.184Z,19.21
2018-09-10T20:13:45.979Z,19.16
2018-09-10T20:16:14.789Z,19.16
2018-09-10T20:18:43.579Z,19.14
2018-09-10T20:21:12.296Z,19.13
2018-09-10T20:23:41.265Z,19.11
2018-09-10T20:26:10.021Z,19.04
2018-09-10T20:28:38.739Z,19.01
2018-09-10T20:31:07.558Z,18.89
2018-09-10T20:33:41.230Z,18.85
2018-09-10T20:36:09.910Z,18.80
2018-09-10T20:38:38.609Z,18.77
2018-09-10T20:41:07.385Z,18.69
2018-09-10T20:43:36.208Z,18.70
2018-09-10T20:46:04.898Z,18.66
2018-09-10T20:48:33.694Z,18.67
2018-09-10T20:51:02.357Z,18.63
2018-09-10T20:53:31.005Z,18.62
2018-09-10T20:55:59.637Z,18.58
2018-09-10T20:58:28.362Z,18.63
2018-09-10T21:00:57.106Z,18.62
2018-09-10T21:03:25.805Z,18.53
2018-09-10T21:05:54.474Z,18.58
2018-09-10T21:08:23.117Z,18.55
2018-09-10T21:10:51.769Z,18.51
2018-09-10T21:13:20.457Z,18.46
2018-09-10T21:15:49.096Z,18.45
2018-09-10T21:18:17.815Z,18.43
2018-09-10T21:20:46.493Z,18.51
2018-09-10T21:23:15.155Z,18.52
2018-09-10T21:25:43.841Z,18.44
2018-09-10T21:28:12.470Z,18.46
2018-09-10T21:30:41.114Z,18.40
2018-09-10T21:33:09.882Z,18.28
2018-09-10T21:35:38.639Z,18.37
2018-09-10T21:38:07.604Z,18.41
2018-09-10T21:40:36.263Z,18.28
2018-09-10T21:43:05.314Z,18.24
2018-09-10T21:45:34.043Z,18.16
2018-09-10T21:48:02.708Z,18.18
2018-09-10T21:50:31.367Z,18.05
2018-09-10T21:53:00.047Z,18.14
2018-09-10T21:55:28.726Z,18.07
2018-09-10T21:57:57.421Z,18.07
2018-09-10T22:00:26.215Z,18.03
2018-09-10T22:02:55.072Z,18.03
2018-09-10T22:05:23.891Z,17.83
2018-09-10T22:07:52.755Z,17.79
2018-09-10T22:10:21.624Z,17.81
2018-09-10T22:12:50.427Z,17.79
2018-09-10T22:15:19.149Z,17.68
2018-09-10T22:17:48.038Z,17.65
2018-09-10T22:20:16.782Z,17.65
2018-09-10T22:22:45.514Z,17.65
2018-09-10T22:25:14.175Z,17.55
2018-09-10T22:27:42.811Z,17.55
2018-09-10T22:30:11.659Z,17.63
2018-09-10T22:32:40.378Z,17.61
2018-09-10T22:35:09.054Z,17.64
2018-09-10T22:37:37.718Z,17.64
2018-09-10T22:40:06.419Z,17.65
2018-09-10T22:42:35.068Z,17.64
2018-09-10T22:45:03.811Z,17.67
2018-09-10T22:47:32.478Z,17.74
2018-09-10T22:50:01.150Z,17.65
2018-09-10T22:52:29.764Z,17.65
2018-09-10T22:54:58.524Z,17.63
2018-09-10T22:57:27.262Z,17.64
2018-09-10T22:59:55.927Z,17.64
2018-09-10T23:02:24.606Z,17.67
2018-09-10T23:04:53.328Z,17.57
2018-09-10T23:07:21.988Z,17.61
2018-09-10T23:09:50.739Z,17.66
2018-09-10T23:12:19.564Z,17.66
2018-09-10T23:14:48.388Z,17.70
2018-09-10T23:17:17.205Z,17.70
2018-09-10T23:19:45.881Z,17.49
2018-09-10T23:22:14.523Z,17.52
2018-09-10T23:24:43.278Z,17.40
2018-09-10T23:27:11.963Z,17.46
2018-09-10T23:29:40.743Z,17.43
2018-09-10T23:32:09.699Z,17.44
2018-09-10T23:34:38.441Z,17.47
2018-09-10T23:37:07.103Z,17.42
2018-09-10T23:39:35.828Z,17.46
2018-09-10T23:42:04.524Z,17.46
2018-09-10T23:44:33.210Z,17.46
2018-09-10T23:47:01.872Z,17.45
2018-09-10T23:49:30.631Z,17.43
2018-09-10T23:51:59.375Z,17.44
2018-09-10T23:54:28.164Z,17.51
2018-09-10T23:56:56.863Z,17.51
2018-09-10T23:59:25.560Z,17.47
